Tomiei Maru — JD3429 — position and weather

sailwx.info

Track history (hours):
 
Tides and Currents Weather Stations Pressure Air Temp Water Temp Dewpoint Dewpoint Depression Visibility Wind Speed Wind Dir Waves Ship Positions

Tomiei Maru

Last reported at 2018-Jul-20 23:43 UTC. Time now 2018-Jul-21 22:33 UTC.
Position N 34°39' E 135°28'.

Length 75 m; draft 4.3 m.

Type: Cargo ship. MMSI: 431004012.

Date/timePositionNaut miles runAvg speedWind from/ knotsBaromVisibWave heightAir tempDewpointWater temp
2018-Jul-20 23:43N 34°39' E 135°28'0 0.0
2018-Jul-20 23:19N 34°39' E 135°28'0 0.0
2018-Jul-20 22:49N 34°39' E 135°28'0 0.0
2018-Jul-20 22:25N 34°39' E 135°28'0 0.0
2018-Jul-20 21:55N 34°39' E 135°28'0 0.0
2018-Jul-20 21:25N 34°39' E 135°28'0 0.0
2018-Jul-20 20:49N 34°39' E 135°28'0 0.0
2018-Jul-20 20:25N 34°39' E 135°28'0 0.0
2018-Jul-20 19:55N 34°39' E 135°28'0 0.0
2018-Jul-20 19:25N 34°39' E 135°28'0 0.0
2018-Jul-20 18:49N 34°39' E 135°28'0 0.0
2018-Jul-20 18:13N 34°39' E 135°28'0 0.0
2018-Jul-20 17:55N 34°39' E 135°28'0 0.0
2018-Jul-20 17:19N 34°39' E 135°28'0 0.0
2018-Jul-20 16:55N 34°39' E 135°28'0 0.0
2018-Jul-20 16:25N 34°39' E 135°28'0 0.0
2018-Jul-20 15:55N 34°39' E 135°28'0 0.0
2018-Jul-20 15:25N 34°39' E 135°28'0 0.0
2018-Jul-20 14:55N 34°39' E 135°28'0 0.0
2018-Jul-20 14:25N 34°39' E 135°28'0 0.0
2018-Jul-20 13:49N 34°39' E 135°28'0 0.0
2018-Jul-20 13:25N 34°39' E 135°28'0 0.0
2018-Jul-20 12:49N 34°39' E 135°28'0 0.0
2018-Jul-20 12:19N 34°39' E 135°28'0 0.0
2018-Jul-20 11:55N 34°39' E 135°28'0 0.0
2018-Jul-20 11:25N 34°39' E 135°28'0 0.0
2018-Jul-20 10:49N 34°39' E 135°28'0 0.0
2018-Jul-20 10:19N 34°39' E 135°28'0 0.0
2018-Jul-20 09:43N 34°39' E 135°28'0 0.0
2018-Jul-20 09:13N 34°39' E 135°28'0 0.0
2018-Jul-20 08:55N 34°39' E 135°28'0 0.0
2018-Jul-20 08:25N 34°39' E 135°28'0 0.0
2018-Jul-20 07:37N 34°39' E 135°28'0 0.0
2018-Jul-20 07:19N 34°39' E 135°28'0 0.0
2018-Jul-20 06:11N 34°39' E 135°28'0 0.0
2018-Jul-20 05:57N 34°39' E 135°28'0 0.1
2018-Jul-20 05:30N 34°39' E 135°28'4 8.7
2018-Jul-20 05:00N 34°38' E 135°23'612.4
2018-Jul-20 04:31N 34°34' E 135°17'612.6
2018-Jul-20 04:01N 34°29' E 135°12'612.1
2018-Jul-20 03:31N 34°25' E 135°07'612.8
2018-Jul-20 03:01N 34°20' E 135°02'612.3
2018-Jul-20 02:30N 34°15' E 134°57'713.2
2018-Jul-20 02:00N 34°12' E 134°50'19 1.0
2018-Jul-19 06:18N 33°53' E 134°56'411.9
2018-Jul-19 05:56N 33°51' E 135°00'23110.5
2018-Jul-18 08:02N 35°03' E 139°26'0 9.7
2018-Jul-18 07:59N 35°03' E 139°27'511.2
2018-Jul-18 07:30N 35°05' E 139°33'612.8
2018-Jul-18 07:00N 35°07' E 139°40'612.3
2018-Jul-18 06:30N 35°12' E 139°45'510.7
2018-Jul-18 06:01N 35°17' E 139°45'611.4
2018-Jul-18 05:31N 35°22' E 139°42'5 9.7
2018-Jul-18 05:00N 35°25' E 139°47'611.7
2018-Jul-18 04:30N 35°22' E 139°53'2 0.1
2018-Jul-16 15:44N 35°23' E 139°51'312.3
2018-Jul-16 15:30N 35°23' E 139°48'510.7
2018-Jul-16 15:00N 35°18' E 139°45'612.2
2018-Jul-16 14:30N 35°12' E 139°47'713.1
2018-Jul-16 14:00N 35°06' E 139°43'713.2
2018-Jul-16 13:30N 35°01' E 139°39'237 5.8
2018-Jul-14 20:28N 33°53' E 135°02'612.6
2018-Jul-14 20:00N 33°59' E 135°02'712.3
2018-Jul-14 19:25N 34°06' E 135°03'512.5
2018-Jul-14 19:00N 34°11' E 135°03'713.4
2018-Jul-14 18:30N 34°18' E 135°04'713.2
2018-Jul-14 18:00N 34°23' E 135°09'713.2
2018-Jul-14 17:30N 34°29' E 135°14'612.3
2018-Jul-14 17:00N 34°33' E 135°18'612.2
2018-Jul-14 16:30N 34°38' E 135°23'4 8.0
2018-Jul-14 16:00N 34°38' E 135°28'0 0.1
2018-Jul-14 15:23N 34°38' E 135°28'0 0.0
2018-Jul-14 14:59N 34°38' E 135°28'0 0.0
2018-Jul-14 14:23N 34°38' E 135°28'0 0.0
2018-Jul-14 13:17N 34°38' E 135°28'0 0.0
2018-Jul-14 12:59N 34°38' E 135°28'0 0.0
2018-Jul-14 12:29N 34°38' E 135°28'0 0.0
2018-Jul-14 11:59N 34°38' E 135°28'0 0.0
2018-Jul-14 11:23N 34°38' E 135°28'0 0.0
2018-Jul-14 10:05N 34°38' E 135°28'0 0.0
2018-Jul-14 09:53N 34°38' E 135°28'0 0.0
2018-Jul-14 09:23N 34°38' E 135°28'0 0.0
2018-Jul-14 08:59N 34°38' E 135°28'0 0.0
2018-Jul-14 08:18N 34°38' E 135°28'0 0.0
2018-Jul-14 08:00N 34°38' E 135°28'0 0.0
2018-Jul-14 07:23N 34°38' E 135°28'0 0.0
2018-Jul-14 06:59N 34°38' E 135°28'0 0.0
2018-Jul-14 06:23N 34°38' E 135°28'0 0.0
2018-Jul-14 05:59N 34°38' E 135°28'0 0.0
2018-Jul-14 05:29N 34°38' E 135°28'0 0.0
2018-Jul-14 04:59N 34°38' E 135°28'0 0.0
2018-Jul-14 04:30N 34°38' E 135°28'0 0.0
2018-Jul-14 03:59N 34°38' E 135°28'1 0.4
2018-Jul-14 00:34N 34°39' E 135°28'0 0.0
2018-Jul-14 00:23N 34°39' E 135°28'0 0.0
2018-Jul-13 23:56N 34°39' E 135°28'0 0.0
2018-Jul-13 23:30N 34°39' E 135°28'0 0.1
2018-Jul-13 23:00N 34°39' E 135°28'2 4.5
2018-Jul-13 22:30N 34°39' E 135°25'510.3
2018-Jul-13 22:00N 34°36' E 135°20'613.0
2018-Jul-13 21:30N 34°31' E 135°15'612.6
2018-Jul-13 21:00N 34°26' E 135°10'612.6
2018-Jul-13 20:30N 34°21' E 135°06'612.3
2018-Jul-13 20:00N 34°15' E 135°03'713.1
2018-Jul-13 19:30N 34°09' E 135°03'713.1
2018-Jul-13 19:00N 34°02' E 135°03'5 0.2
2018-Jul-12 09:26N 33°57' E 135°02'512.2
2018-Jul-12 09:01N 34°02' E 135°02'712.2
2018-Jul-12 08:28N 34°08' E 135°02'611.8
2018-Jul-12 08:00N 34°14' E 135°02'611.3
2018-Jul-12 07:30N 34°19' E 135°05'612.3
2018-Jul-12 07:01N 34°24' E 135°09'813.0
2018-Jul-12 06:24N 34°30' E 135°15'512.5
2018-Jul-12 06:00N 34°34' E 135°19'612.2
2018-Jul-12 05:29N 34°39' E 135°24'3 5.0
2018-Jul-12 04:55N 34°38' E 135°28'0 0.0
2018-Jul-11 15:27N 34°38' E 135°28'0 0.9
2018-Jul-11 15:00N 34°38' E 135°27'0 0.0
2018-Jul-11 14:29N 34°38' E 135°27'0 0.0
2018-Jul-11 13:57N 34°38' E 135°27'0 0.0
2018-Jul-11 13:31N 34°38' E 135°27'0 0.0
2018-Jul-11 13:00N 34°38' E 135°27'0 0.0
2018-Jul-11 12:28N 34°38' E 135°27'0 0.0
2018-Jul-11 12:00N 34°38' E 135°27'0 0.0
2018-Jul-11 11:31N 34°38' E 135°27'0 0.0
2018-Jul-11 10:59N 34°38' E 135°27'0 0.0
2018-Jul-11 10:30N 34°38' E 135°27'0 0.0
2018-Jul-11 10:00N 34°38' E 135°27'0 0.0
2018-Jul-11 09:30N 34°38' E 135°27'1 1.0
2018-Jul-11 08:59N 34°38' E 135°27'5 9.8
2018-Jul-11 08:30N 34°37' E 135°21'612.1
2018-Jul-11 08:00N 34°35' E 135°14'613.0
2018-Jul-11 07:30N 34°35' E 135°06'1310.6
2018-Jul-11 06:18N 34°34' E 134°51'513.1
2018-Jul-11 05:53N 34°31' E 134°45'813.1
2018-Jul-11 05:17N 34°28' E 134°36'1512.7
2018-Jul-11 04:05N 34°23' E 134°18'  
Track history (hours):
 
Tides and Currents Weather Stations Pressure Air Temp Water Temp Dewpoint Dewpoint Depression Visibility Wind Speed Wind Dir Waves Ship Positions

Tomiei Maru

Last reported at 2018-Jul-20 23:43 UTC. Time now 2018-Jul-21 22:33 UTC.
Position N 34°39' E 135°28'.

Length 75 m; draft 4.3 m.

Type: Cargo ship. MMSI: 431004012.

Date/timePositionNaut miles runAvg speedWind from/ knotsBaromVisibWave heightAir tempDewpointWater temp
2018-Jul-20 23:43N 34°39' E 135°28'0 0.0
2018-Jul-20 23:19N 34°39' E 135°28'0 0.0
2018-Jul-20 22:49N 34°39' E 135°28'0 0.0
2018-Jul-20 22:25N 34°39' E 135°28'0 0.0
2018-Jul-20 21:55N 34°39' E 135°28'0 0.0
2018-Jul-20 21:25N 34°39' E 135°28'0 0.0
2018-Jul-20 20:49N 34°39' E 135°28'0 0.0
2018-Jul-20 20:25N 34°39' E 135°28'0 0.0
2018-Jul-20 19:55N 34°39' E 135°28'0 0.0
2018-Jul-20 19:25N 34°39' E 135°28'0 0.0
2018-Jul-20 18:49N 34°39' E 135°28'0 0.0
2018-Jul-20 18:13N 34°39' E 135°28'0 0.0
2018-Jul-20 17:55N 34°39' E 135°28'0 0.0
2018-Jul-20 17:19N 34°39' E 135°28'0 0.0
2018-Jul-20 16:55N 34°39' E 135°28'0 0.0
2018-Jul-20 16:25N 34°39' E 135°28'0 0.0
2018-Jul-20 15:55N 34°39' E 135°28'0 0.0
2018-Jul-20 15:25N 34°39' E 135°28'0 0.0
2018-Jul-20 14:55N 34°39' E 135°28'0 0.0
2018-Jul-20 14:25N 34°39' E 135°28'0 0.0
2018-Jul-20 13:49N 34°39' E 135°28'0 0.0
2018-Jul-20 13:25N 34°39' E 135°28'0 0.0
2018-Jul-20 12:49N 34°39' E 135°28'0 0.0
2018-Jul-20 12:19N 34°39' E 135°28'0 0.0
2018-Jul-20 11:55N 34°39' E 135°28'0 0.0
2018-Jul-20 11:25N 34°39' E 135°28'0 0.0
2018-Jul-20 10:49N 34°39' E 135°28'0 0.0
2018-Jul-20 10:19N 34°39' E 135°28'0 0.0
2018-Jul-20 09:43N 34°39' E 135°28'0 0.0
2018-Jul-20 09:13N 34°39' E 135°28'0 0.0
2018-Jul-20 08:55N 34°39' E 135°28'0 0.0
2018-Jul-20 08:25N 34°39' E 135°28'0 0.0
2018-Jul-20 07:37N 34°39' E 135°28'0 0.0
2018-Jul-20 07:19N 34°39' E 135°28'0 0.0
2018-Jul-20 06:11N 34°39' E 135°28'0 0.0
2018-Jul-20 05:57N 34°39' E 135°28'0 0.1
2018-Jul-20 05:30N 34°39' E 135°28'4 8.7
2018-Jul-20 05:00N 34°38' E 135°23'612.4
2018-Jul-20 04:31N 34°34' E 135°17'612.6
2018-Jul-20 04:01N 34°29' E 135°12'612.1
2018-Jul-20 03:31N 34°25' E 135°07'612.8
2018-Jul-20 03:01N 34°20' E 135°02'612.3
2018-Jul-20 02:30N 34°15' E 134°57'713.2
2018-Jul-20 02:00N 34°12' E 134°50'19 1.0
2018-Jul-19 06:18N 33°53' E 134°56'411.9
2018-Jul-19 05:56N 33°51' E 135°00'23110.5
2018-Jul-18 08:02N 35°03' E 139°26'0 9.7
2018-Jul-18 07:59N 35°03' E 139°27'511.2
2018-Jul-18 07:30N 35°05' E 139°33'612.8
2018-Jul-18 07:00N 35°07' E 139°40'612.3
2018-Jul-18 06:30N 35°12' E 139°45'510.7
2018-Jul-18 06:01N 35°17' E 139°45'611.4
2018-Jul-18 05:31N 35°22' E 139°42'5 9.7
2018-Jul-18 05:00N 35°25' E 139°47'611.7
2018-Jul-18 04:30N 35°22' E 139°53'2 0.1
2018-Jul-16 15:44N 35°23' E 139°51'312.3
2018-Jul-16 15:30N 35°23' E 139°48'510.7
2018-Jul-16 15:00N 35°18' E 139°45'612.2
2018-Jul-16 14:30N 35°12' E 139°47'713.1
2018-Jul-16 14:00N 35°06' E 139°43'713.2
2018-Jul-16 13:30N 35°01' E 139°39'237 5.8
2018-Jul-14 20:28N 33°53' E 135°02'612.6
2018-Jul-14 20:00N 33°59' E 135°02'712.3
2018-Jul-14 19:25N 34°06' E 135°03'512.5
2018-Jul-14 19:00N 34°11' E 135°03'713.4
2018-Jul-14 18:30N 34°18' E 135°04'713.2
2018-Jul-14 18:00N 34°23' E 135°09'713.2
2018-Jul-14 17:30N 34°29' E 135°14'612.3
2018-Jul-14 17:00N 34°33' E 135°18'612.2
2018-Jul-14 16:30N 34°38' E 135°23'4 8.0
2018-Jul-14 16:00N 34°38' E 135°28'0 0.1
2018-Jul-14 15:23N 34°38' E 135°28'0 0.0
2018-Jul-14 14:59N 34°38' E 135°28'0 0.0
2018-Jul-14 14:23N 34°38' E 135°28'0 0.0
2018-Jul-14 13:17N 34°38' E 135°28'0 0.0
2018-Jul-14 12:59N 34°38' E 135°28'0 0.0
2018-Jul-14 12:29N 34°38' E 135°28'0 0.0
2018-Jul-14 11:59N 34°38' E 135°28'0 0.0
2018-Jul-14 11:23N 34°38' E 135°28'0 0.0
2018-Jul-14 10:05N 34°38' E 135°28'0 0.0
2018-Jul-14 09:53N 34°38' E 135°28'0 0.0
2018-Jul-14 09:23N 34°38' E 135°28'0 0.0
2018-Jul-14 08:59N 34°38' E 135°28'0 0.0
2018-Jul-14 08:18N 34°38' E 135°28'0 0.0
2018-Jul-14 08:00N 34°38' E 135°28'0 0.0
2018-Jul-14 07:23N 34°38' E 135°28'0 0.0
2018-Jul-14 06:59N 34°38' E 135°28'0 0.0
2018-Jul-14 06:23N 34°38' E 135°28'0 0.0
2018-Jul-14 05:59N 34°38' E 135°28'0 0.0
2018-Jul-14 05:29N 34°38' E 135°28'0 0.0
2018-Jul-14 04:59N 34°38' E 135°28'0 0.0
2018-Jul-14 04:30N 34°38' E 135°28'0 0.0
2018-Jul-14 03:59N 34°38' E 135°28'1 0.4
2018-Jul-14 00:34N 34°39' E 135°28'0 0.0
2018-Jul-14 00:23N 34°39' E 135°28'0 0.0
2018-Jul-13 23:56N 34°39' E 135°28'0 0.0
2018-Jul-13 23:30N 34°39' E 135°28'0 0.1
2018-Jul-13 23:00N 34°39' E 135°28'2 4.5
2018-Jul-13 22:30N 34°39' E 135°25'510.3
2018-Jul-13 22:00N 34°36' E 135°20'613.0
2018-Jul-13 21:30N 34°31' E 135°15'612.6
2018-Jul-13 21:00N 34°26' E 135°10'612.6
2018-Jul-13 20:30N 34°21' E 135°06'612.3
2018-Jul-13 20:00N 34°15' E 135°03'713.1
2018-Jul-13 19:30N 34°09' E 135°03'713.1
2018-Jul-13 19:00N 34°02' E 135°03'5 0.2
2018-Jul-12 09:26N 33°57' E 135°02'512.2
2018-Jul-12 09:01N 34°02' E 135°02'712.2
2018-Jul-12 08:28N 34°08' E 135°02'611.8
2018-Jul-12 08:00N 34°14' E 135°02'611.3
2018-Jul-12 07:30N 34°19' E 135°05'612.3
2018-Jul-12 07:01N 34°24' E 135°09'813.0
2018-Jul-12 06:24N 34°30' E 135°15'512.5
2018-Jul-12 06:00N 34°34' E 135°19'612.2
2018-Jul-12 05:29N 34°39' E 135°24'3 5.0
2018-Jul-12 04:55N 34°38' E 135°28'0 0.0
2018-Jul-11 15:27N 34°38' E 135°28'0 0.9
2018-Jul-11 15:00N 34°38' E 135°27'0 0.0
2018-Jul-11 14:29N 34°38' E 135°27'0 0.0
2018-Jul-11 13:57N 34°38' E 135°27'0 0.0
2018-Jul-11 13:31N 34°38' E 135°27'0 0.0
2018-Jul-11 13:00N 34°38' E 135°27'0 0.0
2018-Jul-11 12:28N 34°38' E 135°27'0 0.0
2018-Jul-11 12:00N 34°38' E 135°27'0 0.0
2018-Jul-11 11:31N 34°38' E 135°27'0 0.0
2018-Jul-11 10:59N 34°38' E 135°27'0 0.0
2018-Jul-11 10:30N 34°38' E 135°27'0 0.0
2018-Jul-11 10:00N 34°38' E 135°27'0 0.0
2018-Jul-11 09:30N 34°38' E 135°27'1 1.0
2018-Jul-11 08:59N 34°38' E 135°27'5 9.8
2018-Jul-11 08:30N 34°37' E 135°21'612.1
2018-Jul-11 08:00N 34°35' E 135°14'613.0
2018-Jul-11 07:30N 34°35' E 135°06'1310.6
2018-Jul-11 06:18N 34°34' E 134°51'513.1
2018-Jul-11 05:53N 34°31' E 134°45'813.1
2018-Jul-11 05:17N 34°28' E 134°36'1512.7
2018-Jul-11 04:05N 34°23' E 134°18'  

Dump ship's entire track history